sensor_id;sensor_type;location;lat;lon;timestamp;temperature;humidity
1956;DHT22;978;48.314;11.562;2023-06-22T00:00:37;22.80;87.30
1956;DHT22;978;48.314;11.562;2023-06-22T00:03:08;22.80;87.20
1956;DHT22;978;48.314;11.562;2023-06-22T00:05:36;22.80;87.20
1956;DHT22;978;48.314;11.562;2023-06-22T00:08:05;22.80;87.20
1956;DHT22;978;48.314;11.562;2023-06-22T00:10:32;22.80;87.30
1956;DHT22;978;48.314;11.562;2023-06-22T00:13:00;22.80;87.50
1956;DHT22;978;48.314;11.562;2023-06-22T00:15:29;22.80;87.50
1956;DHT22;978;48.314;11.562;2023-06-22T00:17:57;22.80;87.30
1956;DHT22;978;48.314;11.562;2023-06-22T00:20:26;22.80;87.40
1956;DHT22;978;48.314;11.562;2023-06-22T00:22:56;22.80;87.30
1956;DHT22;978;48.314;11.562;2023-06-22T00:25:24;22.80;87.40
1956;DHT22;978;48.314;11.562;2023-06-22T00:27:52;22.80;87.30
1956;DHT22;978;48.314;11.562;2023-06-22T00:30:20;22.80;87.30
1956;DHT22;978;48.314;11.562;2023-06-22T00:32:50;22.80;87.30
1956;DHT22;978;48.314;11.562;2023-06-22T00:35:18;22.80;87.40
1956;DHT22;978;48.314;11.562;2023-06-22T00:37:48;22.80;87.40
1956;DHT22;978;48.314;11.562;2023-06-22T00:40:24;22.80;88.00
1956;DHT22;978;48.314;11.562;2023-06-22T00:42:54;22.80;87.40
1956;DHT22;978;48.314;11.562;2023-06-22T00:45:22;22.70;87.20
1956;DHT22;978;48.314;11.562;2023-06-22T00:47:51;22.80;87.30
1956;DHT22;978;48.314;11.562;2023-06-22T00:50:22;22.80;87.20
1956;DHT22;978;48.314;11.562;2023-06-22T00:52:57;22.80;87.40
1956;DHT22;978;48.314;11.562;2023-06-22T00:55:25;22.80;87.40
1956;DHT22;978;48.314;11.562;2023-06-22T00:57:54;22.80;87.30
1956;DHT22;978;48.314;11.562;2023-06-22T01:00:24;22.80;87.40
1956;DHT22;978;48.314;11.562;2023-06-22T01:02:52;22.80;87.40
1956;DHT22;978;48.314;11.562;2023-06-22T01:05:21;22.80;87.30
1956;DHT22;978;48.314;11.562;2023-06-22T01:08:03;22.80;87.40
1956;DHT22;978;48.314;11.562;2023-06-22T01:10:38;22.80;87.40
1956;DHT22;978;48.314;11.562;2023-06-22T01:13:18;22.80;87.30
1956;DHT22;978;48.314;11.562;2023-06-22T01:15:57;22.80;87.40
1956;DHT22;978;48.314;11.562;2023-06-22T01:18:30;22.80;87.30
1956;DHT22;978;48.314;11.562;2023-06-22T01:21:01;22.80;87.30
1956;DHT22;978;48.314;11.562;2023-06-22T01:23:50;22.80;87.30
1956;DHT22;978;48.314;11.562;2023-06-22T01:26:22;22.80;87.30
1956;DHT22;978;48.314;11.562;2023-06-22T01:28:57;22.80;87.40
1956;DHT22;978;48.314;11.562;2023-06-22T01:31:27;22.70;87.30
1956;DHT22;978;48.314;11.562;2023-06-22T01:33:59;22.80;87.30
1956;DHT22;978;48.314;11.562;2023-06-22T01:36:29;22.80;87.30
1956;DHT22;978;48.314;11.562;2023-06-22T01:38:59;22.80;87.30
1956;DHT22;978;48.314;11.562;2023-06-22T01:41:30;22.80;87.30
1956;DHT22;978;48.314;11.562;2023-06-22T01:44:02;22.80;87.30
1956;DHT22;978;48.314;11.562;2023-06-22T01:46:32;22.80;87.30
1956;DHT22;978;48.314;11.562;2023-06-22T01:49:02;22.70;87.20
1956;DHT22;978;48.314;11.562;2023-06-22T01:51:30;22.80;87.20
1956;DHT22;978;48.314;11.562;2023-06-22T01:53:59;22.80;87.30
1956;DHT22;978;48.314;11.562;2023-06-22T01:56:27;22.80;87.30
1956;DHT22;978;48.314;11.562;2023-06-22T01:59:01;22.80;87.20
1956;DHT22;978;48.314;11.562;2023-06-22T02:01:43;22.80;87.20
1956;DHT22;978;48.314;11.562;2023-06-22T02:04:13;22.80;87.20
1956;DHT22;978;48.314;11.562;2023-06-22T02:06:47;22.80;87.20
1956;DHT22;978;48.314;11.562;2023-06-22T02:09:19;22.80;87.20
1956;DHT22;978;48.314;11.562;2023-06-22T02:11:50;22.80;87.20
1956;DHT22;978;48.314;11.562;2023-06-22T02:14:22;22.80;87.20
1956;DHT22;978;48.314;11.562;2023-06-22T02:16:57;22.80;87.20
1956;DHT22;978;48.314;11.562;2023-06-22T02:19:27;22.80;87.20
1956;DHT22;978;48.314;11.562;2023-06-22T02:22:00;22.80;87.20
1956;DHT22;978;48.314;11.562;2023-06-22T02:24:27;22.80;87.10
1956;DHT22;978;48.314;11.562;2023-06-22T02:26:57;22.80;87.10
1956;DHT22;978;48.314;11.562;2023-06-22T02:29:26;22.80;87.10
1956;DHT22;978;48.314;11.562;2023-06-22T02:31:58;22.80;87.10
1956;DHT22;978;48.314;11.562;2023-06-22T02:34:26;22.70;87.10
1956;DHT22;978;48.314;11.562;2023-06-22T02:36:53;22.80;87.20
1956;DHT22;978;48.314;11.562;2023-06-22T02:39:23;22.80;87.10
1956;DHT22;978;48.314;11.562;2023-06-22T02:41:50;22.70;87.00
1956;DHT22;978;48.314;11.562;2023-06-22T02:44:18;22.80;87.10
1956;DHT22;978;48.314;11.562;2023-06-22T02:46:47;22.80;87.10
1956;DHT22;978;48.314;11.562;2023-06-22T02:49:16;22.80;87.10
1956;DHT22;978;48.314;11.562;2023-06-22T02:51:46;22.80;87.10
1956;DHT22;978;48.314;11.562;2023-06-22T02:54:14;22.80;87.10
1956;DHT22;978;48.314;11.562;2023-06-22T02:56:43;22.80;87.00
1956;DHT22;978;48.314;11.562;2023-06-22T02:59:15;22.80;87.00
1956;DHT22;978;48.314;11.562;2023-06-22T03:01:43;22.80;87.00
1956;DHT22;978;48.314;11.562;2023-06-22T03:04:11;22.80;87.00
1956;DHT22;978;48.314;11.562;2023-06-22T03:06:40;22.80;87.00
1956;DHT22;978;48.314;11.562;2023-06-22T03:09:07;22.80;87.00
1956;DHT22;978;48.314;11.562;2023-06-22T03:11:35;22.80;87.60
1956;DHT22;978;48.314;11.562;2023-06-22T03:14:05;22.70;87.00
1956;DHT22;978;48.314;11.562;2023-06-22T03:16:33;22.80;87.00
1956;DHT22;978;48.314;11.562;2023-06-22T03:19:01;22.80;86.90
1956;DHT22;978;48.314;11.562;2023-06-22T03:21:29;22.80;87.00
1956;DHT22;978;48.314;11.562;2023-06-22T03:24:04;22.80;87.00
1956;DHT22;978;48.314;11.562;2023-06-22T03:26:32;22.80;87.00
1956;DHT22;978;48.314;11.562;2023-06-22T03:29:00;22.70;86.90
1956;DHT22;978;48.314;11.562;2023-06-22T03:31:28;22.80;87.00
1956;DHT22;978;48.314;11.562;2023-06-22T03:33:56;22.80;87.00
1956;DHT22;978;48.314;11.562;2023-06-22T03:36:24;22.70;86.90
1956;DHT22;978;48.314;11.562;2023-06-22T03:38:54;22.80;87.00
1956;DHT22;978;48.314;11.562;2023-06-22T03:41:26;22.80;87.00
1956;DHT22;978;48.314;11.562;2023-06-22T03:43:54;22.70;86.90
1956;DHT22;978;48.314;11.562;2023-06-22T03:46:22;22.80;87.00
1956;DHT22;978;48.314;11.562;2023-06-22T03:48:50;22.80;87.00
1956;DHT22;978;48.314;11.562;2023-06-22T03:51:19;22.80;87.00
1956;DHT22;978;48.314;11.562;2023-06-22T03:53:47;22.80;86.90
1956;DHT22;978;48.314;11.562;2023-06-22T03:56:15;22.80;86.90
1956;DHT22;978;48.314;11.562;2023-06-22T03:58:49;22.80;86.90
1956;DHT22;978;48.314;11.562;2023-06-22T04:01:18;22.80;86.90
1956;DHT22;978;48.314;11.562;2023-06-22T04:03:46;22.80;86.90
1956;DHT22;978;48.314;11.562;2023-06-22T04:06:17;22.80;86.80
1956;DHT22;978;48.314;11.562;2023-06-22T04:08:45;22.80;86.90
1956;DHT22;978;48.314;11.562;2023-06-22T04:11:19;22.80;86.90
1956;DHT22;978;48.314;11.562;2023-06-22T04:14:00;22.70;86.90
1956;DHT22;978;48.314;11.562;2023-06-22T04:16:29;22.80;87.00
1956;DHT22;978;48.314;11.562;2023-06-22T04:18:58;22.80;87.00
1956;DHT22;978;48.314;11.562;2023-06-22T04:21:35;22.80;86.90
1956;DHT22;978;48.314;11.562;2023-06-22T04:24:14;22.80;86.90
1956;DHT22;978;48.314;11.562;2023-06-22T04:26:44;22.80;86.90
1956;DHT22;978;48.314;11.562;2023-06-22T04:29:27;22.80;86.90
1956;DHT22;978;48.314;11.562;2023-06-22T04:31:59;22.80;87.00
1956;DHT22;978;48.314;11.562;2023-06-22T04:34:32;22.80;87.00
1956;DHT22;978;48.314;11.562;2023-06-22T04:37:03;22.80;87.10
1956;DHT22;978;48.314;11.562;2023-06-22T04:39:32;22.80;87.00
1956;DHT22;978;48.314;11.562;2023-06-22T04:42:00;22.80;87.00
1956;DHT22;978;48.314;11.562;2023-06-22T04:44:35;22.80;87.00
1956;DHT22;978;48.314;11.562;2023-06-22T04:47:09;22.80;87.10
1956;DHT22;978;48.314;11.562;2023-06-22T04:49:37;22.80;87.10
1956;DHT22;978;48.314;11.562;2023-06-22T04:52:09;22.80;87.10
1956;DHT22;978;48.314;11.562;2023-06-22T04:54:38;22.80;87.00
1956;DHT22;978;48.314;11.562;2023-06-22T04:57:07;22.80;87.00
1956;DHT22;978;48.314;11.562;2023-06-22T04:59:47;22.80;87.20
1956;DHT22;978;48.314;11.562;2023-06-22T05:02:16;22.80;87.10
1956;DHT22;978;48.314;11.562;2023-06-22T05:04:56;22.80;87.10
1956;DHT22;978;48.314;11.562;2023-06-22T05:07:25;22.70;87.10
1956;DHT22;978;48.314;11.562;2023-06-22T05:09:53;22.80;87.20
1956;DHT22;978;48.314;11.562;2023-06-22T05:12:20;22.80;87.10
1956;DHT22;978;48.314;11.562;2023-06-22T05:14:52;22.70;87.30
1956;DHT22;978;48.314;11.562;2023-06-22T05:17:19;22.80;87.20
1956;DHT22;978;48.314;11.562;2023-06-22T05:19:46;22.80;87.10
1956;DHT22;978;48.314;11.562;2023-06-22T05:22:18;22.80;87.30
1956;DHT22;978;48.314;11.562;2023-06-22T05:24:47;22.80;87.30
1956;DHT22;978;48.314;11.562;2023-06-22T05:27:17;22.80;87.30
1956;DHT22;978;48.314;11.562;2023-06-22T05:29:46;22.70;87.20
1956;DHT22;978;48.314;11.562;2023-06-22T05:32:34;22.80;87.20
1956;DHT22;978;48.314;11.562;2023-06-22T05:35:02;22.80;87.30
1956;DHT22;978;48.314;11.562;2023-06-22T05:37:32;22.80;87.50
1956;DHT22;978;48.314;11.562;2023-06-22T05:40:01;22.80;87.50
1956;DHT22;978;48.314;11.562;2023-06-22T05:42:30;22.80;87.40
1956;DHT22;978;48.314;11.562;2023-06-22T05:45:00;22.80;87.50
1956;DHT22;978;48.314;11.562;2023-06-22T05:47:33;22.80;87.30
1956;DHT22;978;48.314;11.562;2023-06-22T05:50:00;22.70;87.30
1956;DHT22;978;48.314;11.562;2023-06-22T05:52:41;22.80;87.40
1956;DHT22;978;48.314;11.562;2023-06-22T05:55:13;22.80;87.40
1956;DHT22;978;48.314;11.562;2023-06-22T05:57:45;22.80;87.50
1956;DHT22;978;48.314;11.562;2023-06-22T06:00:17;22.80;87.30
1956;DHT22;978;48.314;11.562;2023-06-22T06:02:50;22.80;87.40
1956;DHT22;978;48.314;11.562;2023-06-22T06:05:19;22.80;87.40
1956;DHT22;978;48.314;11.562;2023-06-22T06:07:53;22.80;87.60
1956;DHT22;978;48.314;11.562;2023-06-22T06:10:23;22.80;87.60
1956;DHT22;978;48.314;11.562;2023-06-22T06:12:56;22.80;87.70
1956;DHT22;978;48.314;11.562;2023-06-22T06:15:29;22.80;87.50
1956;DHT22;978;48.314;11.562;2023-06-22T06:18:12;22.80;87.60
1956;DHT22;978;48.314;11.562;2023-06-22T06:20:39;22.80;87.70
1956;DHT22;978;48.314;11.562;2023-06-22T06:23:06;22.80;87.60
1956;DHT22;978;48.314;11.562;2023-06-22T06:25:32;22.80;87.30
1956;DHT22;978;48.314;11.562;2023-06-22T06:27:59;22.70;87.30
1956;DHT22;978;48.314;11.562;2023-06-22T06:30:29;22.80;87.30
1956;DHT22;978;48.314;11.562;2023-06-22T06:32:59;22.70;87.30
1956;DHT22;978;48.314;11.562;2023-06-22T06:35:26;22.70;87.50
1956;DHT22;978;48.314;11.562;2023-06-22T06:37:55;22.80;87.60
1956;DHT22;978;48.314;11.562;2023-06-22T06:40:24;22.80;87.70
1956;DHT22;978;48.314;11.562;2023-06-22T06:42:51;22.80;87.70
1956;DHT22;978;48.314;11.562;2023-06-22T06:45:19;22.70;87.80
1956;DHT22;978;48.314;11.562;2023-06-22T06:47:52;22.80;87.80
1956;DHT22;978;48.314;11.562;2023-06-22T06:50:21;22.80;87.90
1956;DHT22;978;48.314;11.562;2023-06-22T06:52:47;22.70;87.50
1956;DHT22;978;48.314;11.562;2023-06-22T06:55:18;22.60;87.10
1956;DHT22;978;48.314;11.562;2023-06-22T06:57:54;22.80;87.30
1956;DHT22;978;48.314;11.562;2023-06-22T07:00:24;22.80;87.30
1956;DHT22;978;48.314;11.562;2023-06-22T07:02:56;22.80;87.20
1956;DHT22;978;48.314;11.562;2023-06-22T07:05:36;22.80;87.30
1956;DHT22;978;48.314;11.562;2023-06-22T07:08:05;22.80;87.30
1956;DHT22;978;48.314;11.562;2023-06-22T07:10:32;22.80;87.50
1956;DHT22;978;48.314;11.562;2023-06-22T07:12:58;22.70;87.40
1956;DHT22;978;48.314;11.562;2023-06-22T07:15:28;22.80;87.40
1956;DHT22;978;48.314;11.562;2023-06-22T07:17:57;22.80;87.50
1956;DHT22;978;48.314;11.562;2023-06-22T07:20:30;22.80;87.80
1956;DHT22;978;48.314;11.562;2023-06-22T07:23:02;22.80;87.80
1956;DHT22;978;48.314;11.562;2023-06-22T07:25:31;22.80;87.60
1956;DHT22;978;48.314;11.562;2023-06-22T07:28:00;22.80;88.00
1956;DHT22;978;48.314;11.562;2023-06-22T07:30:31;22.80;88.10
1956;DHT22;978;48.314;11.562;2023-06-22T07:33:09;22.80;88.40
1956;DHT22;978;48.314;11.562;2023-06-22T07:35:51;22.80;88.40
1956;DHT22;978;48.314;11.562;2023-06-22T07:38:18;22.70;88.40
1956;DHT22;978;48.314;11.562;2023-06-22T07:40:47;22.80;88.50
1956;DHT22;978;48.314;11.562;2023-06-22T07:43:16;22.80;88.50
1956;DHT22;978;48.314;11.562;2023-06-22T07:45:49;22.70;88.50
1956;DHT22;978;48.314;11.562;2023-06-22T07:50:59;22.80;88.50
1956;DHT22;978;48.314;11.562;2023-06-22T07:53:26;22.80;88.70
1956;DHT22;978;48.314;11.562;2023-06-22T07:55:55;22.80;88.40
1956;DHT22;978;48.314;11.562;2023-06-22T07:58:32;22.80;88.60
1956;DHT22;978;48.314;11.562;2023-06-22T08:01:10;22.80;88.60
1956;DHT22;978;48.314;11.562;2023-06-22T08:03:39;22.80;88.50
1956;DHT22;978;48.314;11.562;2023-06-22T08:06:08;22.80;88.50
1956;DHT22;978;48.314;11.562;2023-06-22T08:08:43;22.80;88.40
1956;DHT22;978;48.314;11.562;2023-06-22T08:11:26;22.80;88.50
1956;DHT22;978;48.314;11.562;2023-06-22T08:13:56;22.80;88.60
1956;DHT22;978;48.314;11.562;2023-06-22T08:16:31;22.70;88.50
1956;DHT22;978;48.314;11.562;2023-06-22T08:19:00;22.80;88.70
1956;DHT22;978;48.314;11.562;2023-06-22T08:21:42;22.80;88.70
1956;DHT22;978;48.314;11.562;2023-06-22T08:24:10;22.80;88.70
1956;DHT22;978;48.314;11.562;2023-06-22T08:26:40;22.80;88.80
1956;DHT22;978;48.314;11.562;2023-06-22T08:29:10;22.80;88.80
1956;DHT22;978;48.314;11.562;2023-06-22T08:31:37;22.80;88.80
1956;DHT22;978;48.314;11.562;2023-06-22T08:34:07;22.80;88.80
1956;DHT22;978;48.314;11.562;2023-06-22T08:36:44;22.80;88.80
1956;DHT22;978;48.314;11.562;2023-06-22T08:39:19;22.80;88.80
1956;DHT22;978;48.314;11.562;2023-06-22T08:41:47;22.80;88.80
1956;DHT22;978;48.314;11.562;2023-06-22T08:44:18;22.80;88.80
1956;DHT22;978;48.314;11.562;2023-06-22T08:46:49;22.80;88.80
1956;DHT22;978;48.314;11.562;2023-06-22T08:49:17;22.80;88.80
1956;DHT22;978;48.314;11.562;2023-06-22T08:51:47;22.80;88.80
1956;DHT22;978;48.314;11.562;2023-06-22T08:54:17;22.80;88.90
1956;DHT22;978;48.314;11.562;2023-06-22T08:56:49;22.80;88.90
1956;DHT22;978;48.314;11.562;2023-06-22T08:59:19;22.80;88.80
1956;DHT22;978;48.314;11.562;2023-06-22T09:01:48;22.80;88.80
1956;DHT22;978;48.314;11.562;2023-06-22T09:04:16;22.50;88.60
1956;DHT22;978;48.314;11.562;2023-06-22T09:06:58;22.80;88.90
1956;DHT22;978;48.314;11.562;2023-06-22T09:09:40;22.80;88.90
1956;DHT22;978;48.314;11.562;2023-06-22T09:12:17;22.80;88.80
1956;DHT22;978;48.314;11.562;2023-06-22T09:14:48;22.80;88.90
1956;DHT22;978;48.314;11.562;2023-06-22T09:17:27;22.80;89.40
1956;DHT22;978;48.314;11.562;2023-06-22T09:20:02;22.80;88.90
1956;DHT22;978;48.314;11.562;2023-06-22T09:22:44;22.80;88.90
1956;DHT22;978;48.314;11.562;2023-06-22T09:25:12;22.80;88.90
1956;DHT22;978;48.314;11.562;2023-06-22T09:27:42;22.80;88.90
1956;DHT22;978;48.314;11.562;2023-06-22T09:30:16;22.80;88.90
1956;DHT22;978;48.314;11.562;2023-06-22T09:32:46;22.80;88.90
1956;DHT22;978;48.314;11.562;2023-06-22T09:35:17;22.80;88.90
1956;DHT22;978;48.314;11.562;2023-06-22T09:37:58;22.80;88.90
1956;DHT22;978;48.314;11.562;2023-06-22T09:40:26;22.80;88.70
1956;DHT22;978;48.314;11.562;2023-06-22T09:43:01;22.80;88.60
1956;DHT22;978;48.314;11.562;2023-06-22T09:45:31;22.80;88.50
1956;DHT22;978;48.314;11.562;2023-06-22T09:47:59;22.80;88.40
1956;DHT22;978;48.314;11.562;2023-06-22T09:50:27;22.80;88.40
1956;DHT22;978;48.314;11.562;2023-06-22T09:52:59;22.80;88.40
1956;DHT22;978;48.314;11.562;2023-06-22T09:55:28;22.80;88.30
1956;DHT22;978;48.314;11.562;2023-06-22T09:57:56;22.80;88.30
1956;DHT22;978;48.314;11.562;2023-06-22T10:00:24;22.80;88.20
1956;DHT22;978;48.314;11.562;2023-06-22T10:02:52;22.80;88.20
1956;DHT22;978;48.314;11.562;2023-06-22T10:05:20;22.80;88.40
1956;DHT22;978;48.314;11.562;2023-06-22T10:07:48;22.80;88.50
1956;DHT22;978;48.314;11.562;2023-06-22T10:10:17;22.80;88.40
1956;DHT22;978;48.314;11.562;2023-06-22T10:12:54;22.80;88.40
1956;DHT22;978;48.314;11.562;2023-06-22T10:15:23;22.80;88.40
1956;DHT22;978;48.314;11.562;2023-06-22T10:17:53;22.80;88.40
1956;DHT22;978;48.314;11.562;2023-06-22T10:20:23;22.80;88.80
1956;DHT22;978;48.314;11.562;2023-06-22T10:22:55;22.80;89.40
1956;DHT22;978;48.314;11.562;2023-06-22T10:25:26;22.80;89.80
1956;DHT22;978;48.314;11.562;2023-06-22T10:27:57;22.80;89.80
1956;DHT22;978;48.314;11.562;2023-06-22T10:30:24;22.80;90.00
1956;DHT22;978;48.314;11.562;2023-06-22T10:32:55;22.80;90.10
1956;DHT22;978;48.314;11.562;2023-06-22T10:35:26;22.80;90.10
1956;DHT22;978;48.314;11.562;2023-06-22T10:37:58;22.80;90.20
1956;DHT22;978;48.314;11.562;2023-06-22T10:40:32;22.80;90.30
1956;DHT22;978;48.314;11.562;2023-06-22T10:43:03;22.80;90.30
1956;DHT22;978;48.314;11.562;2023-06-22T10:45:32;22.80;90.20
1956;DHT22;978;48.314;11.562;2023-06-22T10:48:06;22.80;90.30
1956;DHT22;978;48.314;11.562;2023-06-22T10:50:36;22.80;90.30
1956;DHT22;978;48.314;11.562;2023-06-22T10:53:04;22.80;90.30
1956;DHT22;978;48.314;11.562;2023-06-22T10:55:37;22.80;90.20
1956;DHT22;978;48.314;11.562;2023-06-22T10:58:06;22.80;90.10
1956;DHT22;978;48.314;11.562;2023-06-22T11:00:32;22.90;90.30
1956;DHT22;978;48.314;11.562;2023-06-22T11:03:03;22.90;90.20
1956;DHT22;978;48.314;11.562;2023-06-22T11:05:33;22.80;90.10
1956;DHT22;978;48.314;11.562;2023-06-22T11:08:07;22.80;90.20
1956;DHT22;978;48.314;11.562;2023-06-22T11:10:50;22.80;90.00
1956;DHT22;978;48.314;11.562;2023-06-22T11:13:27;22.80;90.00
1956;DHT22;978;48.314;11.562;2023-06-22T11:15:57;22.80;90.00
1956;DHT22;978;48.314;11.562;2023-06-22T11:18:25;22.80;90.10
1956;DHT22;978;48.314;11.562;2023-06-22T11:20:54;22.80;90.10
1956;DHT22;978;48.314;11.562;2023-06-22T11:23:26;22.80;90.10
1956;DHT22;978;48.314;11.562;2023-06-22T11:25:57;22.80;90.10
1956;DHT22;978;48.314;11.562;2023-06-22T11:28:27;22.80;90.00
1956;DHT22;978;48.314;11.562;2023-06-22T11:31:03;22.80;89.90
1956;DHT22;978;48.314;11.562;2023-06-22T11:33:32;22.80;89.90
1956;DHT22;978;48.314;11.562;2023-06-22T11:36:08;22.80;89.80
1956;DHT22;978;48.314;11.562;2023-06-22T11:38:49;22.90;90.00
1956;DHT22;978;48.314;11.562;2023-06-22T11:41:19;22.80;89.90
1956;DHT22;978;48.314;11.562;2023-06-22T11:43:49;22.80;89.90
1956;DHT22;978;48.314;11.562;2023-06-22T11:46:16;22.80;89.80
1956;DHT22;978;48.314;11.562;2023-06-22T11:48:44;22.80;89.90
1956;DHT22;978;48.314;11.562;2023-06-22T11:51:20;22.80;90.00
1956;DHT22;978;48.314;11.562;2023-06-22T11:53:48;22.80;90.20
1956;DHT22;978;48.314;11.562;2023-06-22T11:56:14;22.80;89.90
1956;DHT22;978;48.314;11.562;2023-06-22T11:58:50;22.80;89.90
1956;DHT22;978;48.314;11.562;2023-06-22T12:01:17;22.80;89.90
1956;DHT22;978;48.314;11.562;2023-06-22T12:03:45;22.80;90.00
1956;DHT22;978;48.314;11.562;2023-06-22T12:06:16;22.80;90.00
1956;DHT22;978;48.314;11.562;2023-06-22T12:08:45;22.80;90.10
1956;DHT22;978;48.314;11.562;2023-06-22T12:11:12;22.80;90.10
1956;DHT22;978;48.314;11.562;2023-06-22T12:13:40;22.80;90.10
1956;DHT22;978;48.314;11.562;2023-06-22T12:16:11;22.80;90.00
1956;DHT22;978;48.314;11.562;2023-06-22T12:18:39;22.80;90.00
1956;DHT22;978;48.314;11.562;2023-06-22T12:21:09;22.90;90.00
1956;DHT22;978;48.314;11.562;2023-06-22T12:23:40;22.80;90.00
1956;DHT22;978;48.314;11.562;2023-06-22T12:26:09;22.80;90.10
1956;DHT22;978;48.314;11.562;2023-06-22T12:28:41;22.80;90.10
1956;DHT22;978;48.314;11.562;2023-06-22T12:31:23;22.80;90.00
1956;DHT22;978;48.314;11.562;2023-06-22T12:33:51;22.80;90.10
1956;DHT22;978;48.314;11.562;2023-06-22T12:36:20;22.90;90.00
1956;DHT22;978;48.314;11.562;2023-06-22T12:38:58;22.80;90.10
1956;DHT22;978;48.314;11.562;2023-06-22T12:41:32;22.80;90.10
1956;DHT22;978;48.314;11.562;2023-06-22T12:44:08;22.80;90.00
1956;DHT22;978;48.314;11.562;2023-06-22T12:46:49;22.80;90.00
1956;DHT22;978;48.314;11.562;2023-06-22T12:49:16;22.80;90.00
1956;DHT22;978;48.314;11.562;2023-06-22T12:51:47;22.80;90.00
1956;DHT22;978;48.314;11.562;2023-06-22T12:54:16;22.90;90.00
1956;DHT22;978;48.314;11.562;2023-06-22T12:56:45;22.80;90.00
1956;DHT22;978;48.314;11.562;2023-06-22T12:59:21;22.80;90.00
1956;DHT22;978;48.314;11.562;2023-06-22T13:01:55;22.80;90.00
1956;DHT22;978;48.314;11.562;2023-06-22T13:04:24;22.80;90.00
1956;DHT22;978;48.314;11.562;2023-06-22T13:07:00;22.80;90.00
1956;DHT22;978;48.314;11.562;2023-06-22T13:09:29;22.80;90.00
1956;DHT22;978;48.314;11.562;2023-06-22T13:11:59;22.80;90.00
1956;DHT22;978;48.314;11.562;2023-06-22T13:14:40;22.80;90.00
1956;DHT22;978;48.314;11.562;2023-06-22T13:17:12;22.90;90.00
1956;DHT22;978;48.314;11.562;2023-06-22T13:19:51;22.80;90.00
1956;DHT22;978;48.314;11.562;2023-06-22T13:22:31;22.90;90.00
1956;DHT22;978;48.314;11.562;2023-06-22T13:25:01;22.80;90.00
1956;DHT22;978;48.314;11.562;2023-06-22T13:27:33;22.80;90.00
1956;DHT22;978;48.314;11.562;2023-06-22T13:30:09;22.80;90.10
1956;DHT22;978;48.314;11.562;2023-06-22T13:32:57;22.80;90.10
1956;DHT22;978;48.314;11.562;2023-06-22T13:35:28;22.90;90.10
1956;DHT22;978;48.314;11.562;2023-06-22T13:38:06;22.80;90.10
1956;DHT22;978;48.314;11.562;2023-06-22T13:40:35;22.80;90.00
1956;DHT22;978;48.314;11.562;2023-06-22T13:43:09;22.80;90.00
1956;DHT22;978;48.314;11.562;2023-06-22T13:45:39;22.90;90.00
1956;DHT22;978;48.314;11.562;2023-06-22T13:48:28;22.90;90.00
1956;DHT22;978;48.314;11.562;2023-06-22T13:50:55;22.80;90.00
1956;DHT22;978;48.314;11.562;2023-06-22T13:53:27;22.80;90.00
1956;DHT22;978;48.314;11.562;2023-06-22T13:56:07;22.80;90.00
1956;DHT22;978;48.314;11.562;2023-06-22T13:58:38;22.80;90.00
1956;DHT22;978;48.314;11.562;2023-06-22T14:01:15;22.80;90.00
1956;DHT22;978;48.314;11.562;2023-06-22T14:04:03;22.80;90.00
1956;DHT22;978;48.314;11.562;2023-06-22T14:06:32;22.80;89.90
1956;DHT22;978;48.314;11.562;2023-06-22T14:09:00;22.90;90.00
1956;DHT22;978;48.314;11.562;2023-06-22T14:11:29;22.80;89.90
1956;DHT22;978;48.314;11.562;2023-06-22T14:14:01;22.80;89.90
1956;DHT22;978;48.314;11.562;2023-06-22T14:16:33;22.80;89.90
1956;DHT22;978;48.314;11.562;2023-06-22T14:19:04;22.80;89.80
1956;DHT22;978;48.314;11.562;2023-06-22T14:21:33;22.80;89.90
1956;DHT22;978;48.314;11.562;2023-06-22T14:24:11;22.80;89.90
1956;DHT22;978;48.314;11.562;2023-06-22T14:26:40;22.80;89.90
1956;DHT22;978;48.314;11.562;2023-06-22T14:29:10;22.90;90.00
1956;DHT22;978;48.314;11.562;2023-06-22T14:31:52;22.80;90.00
1956;DHT22;978;48.314;11.562;2023-06-22T14:34:20;22.80;90.00
1956;DHT22;978;48.314;11.562;2023-06-22T14:36:56;22.80;90.00
1956;DHT22;978;48.314;11.562;2023-06-22T14:39:37;22.80;90.00
1956;DHT22;978;48.314;11.562;2023-06-22T14:42:14;22.80;90.00
1956;DHT22;978;48.314;11.562;2023-06-22T14:44:51;22.90;90.00
1956;DHT22;978;48.314;11.562;2023-06-22T14:47:19;22.80;89.90
1956;DHT22;978;48.314;11.562;2023-06-22T14:49:59;22.90;90.00
1956;DHT22;978;48.314;11.562;2023-06-22T14:52:29;22.80;90.00
1956;DHT22;978;48.314;11.562;2023-06-22T14:55:07;22.80;90.00
1956;DHT22;978;48.314;11.562;2023-06-22T14:57:36;22.90;90.30
1956;DHT22;978;48.314;11.562;2023-06-22T15:00:14;22.90;90.00
1956;DHT22;978;48.314;11.562;2023-06-22T15:02:50;22.80;90.10
1956;DHT22;978;48.314;11.562;2023-06-22T15:05:20;22.90;90.00
1956;DHT22;978;48.314;11.562;2023-06-22T15:07:50;22.80;90.00
1956;DHT22;978;48.314;11.562;2023-06-22T15:10:20;22.90;90.00
1956;DHT22;978;48.314;11.562;2023-06-22T15:12:57;22.80;90.00
1956;DHT22;978;48.314;11.562;2023-06-22T15:15:26;22.80;90.00
1956;DHT22;978;48.314;11.562;2023-06-22T15:17:55;22.80;90.00
1956;DHT22;978;48.314;11.562;2023-06-22T15:20:25;22.90;90.00
1956;DHT22;978;48.314;11.562;2023-06-22T15:22:56;22.80;90.00
1956;DHT22;978;48.314;11.562;2023-06-22T15:25:28;22.90;90.00
1956;DHT22;978;48.314;11.562;2023-06-22T15:27:55;22.80;89.90
1956;DHT22;978;48.314;11.562;2023-06-22T15:30:26;22.90;90.00
1956;DHT22;978;48.314;11.562;2023-06-22T15:32:54;22.80;89.90
1956;DHT22;978;48.314;11.562;2023-06-22T15:35:38;22.90;90.00
1956;DHT22;978;48.314;11.562;2023-06-22T15:38:04;22.90;90.00
1956;DHT22;978;48.314;11.562;2023-06-22T15:40:34;22.80;90.00
1956;DHT22;978;48.314;11.562;2023-06-22T15:43:02;22.80;89.90
1956;DHT22;978;48.314;11.562;2023-06-22T15:45:31;22.90;90.00
1956;DHT22;978;48.314;11.562;2023-06-22T15:47:59;22.90;90.00
1956;DHT22;978;48.314;11.562;2023-06-22T15:50:27;22.90;90.00
1956;DHT22;978;48.314;11.562;2023-06-22T15:52:55;22.80;89.90
1956;DHT22;978;48.314;11.562;2023-06-22T15:55:26;22.90;90.00
1956;DHT22;978;48.314;11.562;2023-06-22T15:58:03;22.80;90.00
1956;DHT22;978;48.314;11.562;2023-06-22T16:00:30;22.90;90.00
1956;DHT22;978;48.314;11.562;2023-06-22T16:02:59;22.80;90.00
1956;DHT22;978;48.314;11.562;2023-06-22T16:05:41;22.90;90.00
1956;DHT22;978;48.314;11.562;2023-06-22T16:08:12;22.90;90.00
1956;DHT22;978;48.314;11.562;2023-06-22T16:10:42;23.00;90.00
1956;DHT22;978;48.314;11.562;2023-06-22T16:13:13;22.90;90.00
1956;DHT22;978;48.314;11.562;2023-06-22T16:15:49;22.90;90.00
1956;DHT22;978;48.314;11.562;2023-06-22T16:18:17;22.90;90.00
1956;DHT22;978;48.314;11.562;2023-06-22T16:20:49;22.90;90.00
1956;DHT22;978;48.314;11.562;2023-06-22T16:23:17;22.80;90.00
1956;DHT22;978;48.314;11.562;2023-06-22T16:25:43;22.90;90.00
1956;DHT22;978;48.314;11.562;2023-06-22T16:28:11;22.90;90.00
1956;DHT22;978;48.314;11.562;2023-06-22T16:30:41;22.90;90.00